HMS Portugal — V2NA6 — position and weather

sailwx.info

Track history (hours):
 
Tides and Currents Weather Stations Pressure Air Temp Water Temp Dewpoint Dewpoint Depression Visibility Wind Speed Wind Dir Waves Ship Positions

HMS Portugal

Last reported at 2018-Jun-15 06:08 UTC. Time now 2018-Jun-20 01:59 UTC.
Position N 25°35' W 079°36'.

Length 100 m; draft 6.2 m.

Type: Cargo ship. MMSI: 203640704.

Date/timePositionNaut miles runAvg speedWind from/ knotsBaromVisibWave heightAir tempDewpointWater temp
2018-Jun-15 06:08N 25°35' W 079°36'210.6
2018-Jun-15 05:59N 25°36' W 079°36'510.5
2018-Jun-15 05:30N 25°41' W 079°36'510.4
2018-Jun-15 05:00N 25°46' W 079°36'510.3
2018-Jun-15 04:30N 25°52' W 079°35'510.3
2018-Jun-15 04:00N 25°57' W 079°35'510.3
2018-Jun-15 03:30N 26°02' W 079°35'510.3
2018-Jun-15 03:00N 26°07' W 079°35'510.2
2018-Jun-15 02:30N 26°12' W 079°37'510.5
2018-Jun-15 02:00N 26°17' W 079°40'510.1
2018-Jun-15 01:30N 26°21' W 079°43'5 9.7
2018-Jun-15 01:00N 26°25' W 079°46'2410.5
2018-Jun-14 22:43N 26°45' W 079°60'2 8.5
2018-Jun-14 22:30N 26°46' W 080°02'1 0.0
2018-Jun-13 21:28N 26°46' W 080°03'2 4.6
2018-Jun-13 21:01N 26°46' W 080°01'19 7.8
2018-Jun-13 18:33N 26°30' W 079°49'1 7.9
2018-Jun-13 18:24N 26°29' W 079°48'3 7.8
2018-Jun-13 18:00N 26°27' W 079°46'4 7.5
2018-Jun-13 17:26N 26°23' W 079°44'3 7.4
2018-Jun-13 16:59N 26°20' W 079°42'4 7.3
2018-Jun-13 16:28N 26°17' W 079°40'3 7.2
2018-Jun-13 16:00N 26°14' W 079°38'4 7.3
2018-Jun-13 15:30N 26°11' W 079°36'5 9.3
2018-Jun-13 15:00N 26°06' W 079°35'5 9.6
2018-Jun-13 14:30N 26°02' W 079°36'5 9.5
2018-Jun-13 14:00N 25°57' W 079°36'5 9.5
2018-Jun-13 13:28N 25°52' W 079°36'4 9.3
2018-Jun-13 13:00N 25°47' W 079°36'5 9.2
2018-Jun-13 12:30N 25°43' W 079°35'5 9.2
2018-Jun-13 12:00N 25°38' W 079°35'5 9.1
2018-Jun-13 11:29N 25°34' W 079°36'4 9.0
2018-Jun-13 11:00N 25°29' W 079°36'  
2018-Jun-08 07:45N 25°33' W 079°36'310.7
2018-Jun-08 07:30N 25°35' W 079°36'510.6
2018-Jun-08 07:00N 25°40' W 079°35'510.4
2018-Jun-08 06:31N 25°46' W 079°35'510.3
2018-Jun-08 06:00N 25°51' W 079°35'510.3
2018-Jun-08 05:31N 25°56' W 079°35'510.1
2018-Jun-08 05:00N 26°01' W 079°35'510.0
2018-Jun-08 04:30N 26°06' W 079°35'5 9.6
2018-Jun-08 04:00N 26°11' W 079°37'510.1
2018-Jun-08 03:30N 26°15' W 079°40'5 9.8
2018-Jun-08 03:00N 26°19' W 079°43'5 9.7
2018-Jun-08 02:30N 26°23' W 079°46'5 9.4
2018-Jun-08 02:00N 26°27' W 079°48'610.0
2018-Jun-08 01:27N 26°32' W 079°52'1110.0
2018-Jun-08 00:20N 26°42' W 079°57'7 0.4
2018-Jun-07 08:15N 26°46' W 080°03'0 0.0
2018-Jun-07 06:06N 26°46' W 080°03'0 0.0
2018-Jun-07 05:51N 26°46' W 080°03'0 0.0
2018-Jun-07 05:21N 26°46' W 080°03'0 0.0
2018-Jun-07 04:33N 26°46' W 080°03'0 0.0
2018-Jun-07 04:21N 26°46' W 080°03'0 0.0
2018-Jun-07 03:54N 26°46' W 080°03'0 0.0
2018-Jun-07 03:24N 26°46' W 080°03'0 0.1
2018-Jun-06 22:46N 26°46' W 080°03'23 8.0
2018-Jun-06 19:54N 26°28' W 079°47'410.8
2018-Jun-06 19:30N 26°24' W 079°45'510.9
2018-Jun-06 19:00N 26°19' W 079°42'611.1
2018-Jun-06 18:30N 26°14' W 079°39'510.7
2018-Jun-06 18:00N 26°10' W 079°36'510.7
2018-Jun-06 17:30N 26°04' W 079°36'510.9
2018-Jun-06 17:00N 25°59' W 079°36'610.9
2018-Jun-06 16:30N 25°54' W 079°36'610.7
2018-Jun-06 15:59N 25°48' W 079°36'511.2
2018-Jun-06 15:30N 25°43' W 079°36'611.3
2018-Jun-06 15:00N 25°37' W 079°36'611.0
2018-Jun-06 14:30N 25°32' W 079°36'  
Track history (hours):
 
Tides and Currents Weather Stations Pressure Air Temp Water Temp Dewpoint Dewpoint Depression Visibility Wind Speed Wind Dir Waves Ship Positions

HMS Portugal

Last reported at 2018-Jun-15 06:08 UTC. Time now 2018-Jun-20 01:59 UTC.
Position N 25°35' W 079°36'.

Length 100 m; draft 6.2 m.

Type: Cargo ship. MMSI: 203640704.

Date/timePositionNaut miles runAvg speedWind from/ knotsBaromVisibWave heightAir tempDewpointWater temp
2018-Jun-15 06:08N 25°35' W 079°36'210.6
2018-Jun-15 05:59N 25°36' W 079°36'510.5
2018-Jun-15 05:30N 25°41' W 079°36'510.4
2018-Jun-15 05:00N 25°46' W 079°36'510.3
2018-Jun-15 04:30N 25°52' W 079°35'510.3
2018-Jun-15 04:00N 25°57' W 079°35'510.3
2018-Jun-15 03:30N 26°02' W 079°35'510.3
2018-Jun-15 03:00N 26°07' W 079°35'510.2
2018-Jun-15 02:30N 26°12' W 079°37'510.5
2018-Jun-15 02:00N 26°17' W 079°40'510.1
2018-Jun-15 01:30N 26°21' W 079°43'5 9.7
2018-Jun-15 01:00N 26°25' W 079°46'2410.5
2018-Jun-14 22:43N 26°45' W 079°60'2 8.5
2018-Jun-14 22:30N 26°46' W 080°02'1 0.0
2018-Jun-13 21:28N 26°46' W 080°03'2 4.6
2018-Jun-13 21:01N 26°46' W 080°01'19 7.8
2018-Jun-13 18:33N 26°30' W 079°49'1 7.9
2018-Jun-13 18:24N 26°29' W 079°48'3 7.8
2018-Jun-13 18:00N 26°27' W 079°46'4 7.5
2018-Jun-13 17:26N 26°23' W 079°44'3 7.4
2018-Jun-13 16:59N 26°20' W 079°42'4 7.3
2018-Jun-13 16:28N 26°17' W 079°40'3 7.2
2018-Jun-13 16:00N 26°14' W 079°38'4 7.3
2018-Jun-13 15:30N 26°11' W 079°36'5 9.3
2018-Jun-13 15:00N 26°06' W 079°35'5 9.6
2018-Jun-13 14:30N 26°02' W 079°36'5 9.5
2018-Jun-13 14:00N 25°57' W 079°36'5 9.5
2018-Jun-13 13:28N 25°52' W 079°36'4 9.3
2018-Jun-13 13:00N 25°47' W 079°36'5 9.2
2018-Jun-13 12:30N 25°43' W 079°35'5 9.2
2018-Jun-13 12:00N 25°38' W 079°35'5 9.1
2018-Jun-13 11:29N 25°34' W 079°36'4 9.0
2018-Jun-13 11:00N 25°29' W 079°36'  
2018-Jun-08 07:45N 25°33' W 079°36'310.7
2018-Jun-08 07:30N 25°35' W 079°36'510.6
2018-Jun-08 07:00N 25°40' W 079°35'510.4
2018-Jun-08 06:31N 25°46' W 079°35'510.3
2018-Jun-08 06:00N 25°51' W 079°35'510.3
2018-Jun-08 05:31N 25°56' W 079°35'510.1
2018-Jun-08 05:00N 26°01' W 079°35'510.0
2018-Jun-08 04:30N 26°06' W 079°35'5 9.6
2018-Jun-08 04:00N 26°11' W 079°37'510.1
2018-Jun-08 03:30N 26°15' W 079°40'5 9.8
2018-Jun-08 03:00N 26°19' W 079°43'5 9.7
2018-Jun-08 02:30N 26°23' W 079°46'5 9.4
2018-Jun-08 02:00N 26°27' W 079°48'610.0
2018-Jun-08 01:27N 26°32' W 079°52'1110.0
2018-Jun-08 00:20N 26°42' W 079°57'7 0.4
2018-Jun-07 08:15N 26°46' W 080°03'0 0.0
2018-Jun-07 06:06N 26°46' W 080°03'0 0.0
2018-Jun-07 05:51N 26°46' W 080°03'0 0.0
2018-Jun-07 05:21N 26°46' W 080°03'0 0.0
2018-Jun-07 04:33N 26°46' W 080°03'0 0.0
2018-Jun-07 04:21N 26°46' W 080°03'0 0.0
2018-Jun-07 03:54N 26°46' W 080°03'0 0.0
2018-Jun-07 03:24N 26°46' W 080°03'0 0.1
2018-Jun-06 22:46N 26°46' W 080°03'23 8.0
2018-Jun-06 19:54N 26°28' W 079°47'410.8
2018-Jun-06 19:30N 26°24' W 079°45'510.9
2018-Jun-06 19:00N 26°19' W 079°42'611.1
2018-Jun-06 18:30N 26°14' W 079°39'510.7
2018-Jun-06 18:00N 26°10' W 079°36'510.7
2018-Jun-06 17:30N 26°04' W 079°36'510.9
2018-Jun-06 17:00N 25°59' W 079°36'610.9
2018-Jun-06 16:30N 25°54' W 079°36'610.7
2018-Jun-06 15:59N 25°48' W 079°36'511.2
2018-Jun-06 15:30N 25°43' W 079°36'611.3
2018-Jun-06 15:00N 25°37' W 079°36'611.0
2018-Jun-06 14:30N 25°32' W 079°36'  

Dump ship's entire track history